Time;durP1;ratioP1;P1;durP2;ratioP2;P2;SDS_P1;SDS_P2;PMS_P1;PMS_P2;Temp;Humidity;BMP_temperature;BMP_pressure;BME280_temperature;BME280_humidity;BME280_pressure;Samples;Min_cycle;Max_cycle;Signal;HPM_P1;HPM_P2
2023/09/14 00:01:49;;;;;;;9.02;2.70;;;14.10;65.80;;;;;;6244786;28;20085;-74
2023/09/14 00:04:51;;;;;;;8.82;2.08;;;14.20;64.70;;;;;;6220522;28;20058;-74
2023/09/14 00:07:52;;;;;;;6.95;2.00;;;14.10;63.60;;;;;;6237356;28;20046;-74
2023/09/14 00:10:54;;;;;;;6.40;2.03;;;14.10;65.50;;;;;;6226157;28;20053;-73
2023/09/14 00:13:56;;;;;;;6.18;1.65;;;14.00;63.70;;;;;;6244901;28;20060;-73
2023/09/14 00:16:57;;;;;;;5.13;1.60;;;13.90;64.00;;;;;;6215613;28;20051;-74
2023/09/14 00:19:59;;;;;;;9.25;2.10;;;13.90;65.30;;;;;;6243743;28;20057;-73
2023/09/14 00:23:03;;;;;;;6.32;2.15;;;13.90;65.50;;;;;;6224735;28;20519;-73
2023/09/14 00:26:04;;;;;;;6.95;1.75;;;13.70;65.40;;;;;;6219259;28;20500;-73
2023/09/14 00:29:06;;;;;;;10.30;2.10;;;13.80;65.50;;;;;;6244113;28;20057;-73
2023/09/14 00:32:07;;;;;;;13.93;2.38;;;13.70;65.00;;;;;;6220878;28;20061;-73
2023/09/14 00:35:09;;;;;;;4.57;2.00;;;13.80;65.50;;;;;;6243953;28;20056;-73
2023/09/14 00:38:11;;;;;;;11.25;2.10;;;13.80;67.40;;;;;;6215771;28;20050;-73
2023/09/14 00:41:13;;;;;;;5.68;1.85;;;13.70;68.80;;;;;;6243560;28;20175;-73
2023/09/14 00:44:14;;;;;;;8.48;2.17;;;13.80;68.90;;;;;;6220016;28;20050;-73
2023/09/14 00:47:16;;;;;;;6.18;2.00;;;13.80;68.10;;;;;;6227393;28;20050;-73
2023/09/14 00:50:18;;;;;;;7.72;1.92;;;13.70;67.80;;;;;;6218800;28;20062;-74
2023/09/14 00:53:19;;;;;;;6.90;2.13;;;13.70;68.60;;;;;;6227873;28;20508;-73
2023/09/14 00:56:21;;;;;;;8.80;2.42;;;13.70;69.90;;;;;;6235042;28;20061;-73
2023/09/14 00:59:23;;;;;;;7.30;2.60;;;13.70;72.80;;;;;;6243175;28;20061;-73
2023/09/14 01:02:24;;;;;;;9.38;2.22;;;13.80;72.80;;;;;;6220413;28;20049;-73
2023/09/14 01:05:26;;;;;;;6.28;2.38;;;13.80;72.30;;;;;;6243363;28;20122;-73
2023/09/14 01:08:28;;;;;;;7.07;2.58;;;13.90;72.30;;;;;;6212268;28;20058;-73
2023/09/14 01:11:30;;;;;;;11.57;2.50;;;13.90;71.80;;;;;;6228704;28;20087;-73
2023/09/14 01:14:31;;;;;;;7.57;2.45;;;13.90;71.00;;;;;;6219397;28;20389;-73
2023/09/14 01:17:33;;;;;;;8.70;2.50;;;13.90;71.20;;;;;;6243048;28;20049;-73
2023/09/14 01:20:35;;;;;;;5.47;2.03;;;13.80;71.80;;;;;;6218771;28;20054;-73
2023/09/14 01:23:38;;;;;;;7.82;1.83;;;13.80;70.40;;;;;;6222353;28;20060;-74
2023/09/14 01:26:39;;;;;;;5.53;2.20;;;13.70;69.90;;;;;;6235950;28;20061;-73
2023/09/14 01:29:41;;;;;;;6.63;2.15;;;13.70;68.50;;;;;;6242807;28;20045;-74
2023/09/14 01:32:43;;;;;;;6.97;2.20;;;13.60;69.40;;;;;;6219481;28;20053;-74
2023/09/14 01:35:44;;;;;;;7.57;2.15;;;13.50;69.80;;;;;;6243323;28;20144;-73
2023/09/14 01:38:46;;;;;;;5.80;1.90;;;13.50;69.90;;;;;;6224750;28;20056;-72
2023/09/14 01:41:54;;;;;;;6.13;1.80;;;13.50;69.90;;;;;;6219193;28;20088;-75
2023/09/14 01:44:56;;;;;;;9.30;2.08;;;13.50;70.60;;;;;;6209354;28;20486;-72
2023/09/14 01:47:58;;;;;;;8.90;2.38;;;13.50;71.20;;;;;;6241962;28;20532;-73
2023/09/14 01:50:59;;;;;;;6.13;2.00;;;13.50;71.40;;;;;;6218451;28;20061;-72
2023/09/14 01:54:01;;;;;;;7.40;2.05;;;13.40;71.80;;;;;;6219608;28;20054;-73
2023/09/14 01:57:03;;;;;;;7.93;1.92;;;13.40;72.10;;;;;;6239441;28;20057;-73
2023/09/14 02:00:05;;;;;;;7.28;2.75;;;13.40;71.60;;;;;;6203784;28;20050;-74
2023/09/14 02:03:06;;;;;;;12.68;2.17;;;13.40;70.70;;;;;;6245728;28;20060;-73
2023/09/14 02:06:08;;;;;;;6.47;2.20;;;13.40;70.90;;;;;;6223565;28;20054;-73
2023/09/14 02:09:10;;;;;;;7.00;1.95;;;13.30;70.10;;;;;;6199378;28;20062;-73
2023/09/14 02:12:11;;;;;;;6.97;2.08;;;13.30;71.70;;;;;;6233781;28;20072;-73
2023/09/14 02:15:13;;;;;;;5.30;1.85;;;13.20;71.60;;;;;;6247266;28;20050;-73
2023/09/14 02:18:15;;;;;;;5.63;1.90;;;13.20;71.20;;;;;;6223517;28;20050;-73
2023/09/14 02:21:16;;;;;;;6.20;1.60;;;13.10;69.70;;;;;;6224508;28;20437;-73
2023/09/14 02:24:18;;;;;;;7.25;1.98;;;13.10;69.40;;;;;;6240035;28;20580;-73
2023/09/14 02:27:20;;;;;;;7.10;1.95;;;13.00;70.70;;;;;;6221300;28;20054;-73
2023/09/14 02:30:22;;;;;;;6.53;1.90;;;13.00;71.20;;;;;;6234494;28;20050;-72
2023/09/14 02:33:23;;;;;;;5.40;1.80;;;13.00;69.80;;;;;;6246850;28;20856;-73
2023/09/14 02:36:26;;;;;;;7.57;1.95;;;12.90;70.40;;;;;;6223215;28;20532;-73
2023/09/14 02:39:28;;;;;;;7.65;2.42;;;12.90;70.90;;;;;;6202983;28;20061;-73
2023/09/14 02:42:30;;;;;;;9.10;2.35;;;12.90;71.60;;;;;;6232953;28;20065;-72
2023/09/14 02:45:31;;;;;;;8.32;2.17;;;12.80;71.70;;;;;;6222664;28;20516;-75
2023/09/14 02:48:33;;;;;;;8.95;1.88;;;12.90;73.10;;;;;;6246422;28;20049;-75
2023/09/14 02:51:35;;;;;;;4.60;1.88;;;12.80;74.70;;;;;;6221908;28;20064;-74
2023/09/14 02:54:36;;;;;;;5.20;1.90;;;12.80;74.30;;;;;;6244065;28;20087;-75
2023/09/14 02:57:38;;;;;;;7.50;2.10;;;12.70;74.20;;;;;;6221972;28;20830;-74
2023/09/14 03:00:40;;;;;;;6.75;1.98;;;12.80;75.80;;;;;;6224949;28;20054;-74
2023/09/14 03:03:41;;;;;;;7.32;2.00;;;12.80;77.00;;;;;;6246133;28;20576;-74
2023/09/14 03:06:43;;;;;;;5.15;2.10;;;12.80;76.90;;;;;;6223991;28;20065;-74
2023/09/14 03:09:45;;;;;;;4.53;1.90;;;12.80;75.20;;;;;;6220909;28;20077;-74
2023/09/14 03:12:47;;;;;;;7.80;1.90;;;12.80;74.50;;;;;;6245343;28;20064;-74
2023/09/14 03:15:48;;;;;;;6.78;2.08;;;12.80;74.40;;;;;;6222055;28;20140;-74
2023/09/14 03:18:50;;;;;;;8.32;2.78;;;12.80;76.10;;;;;;6233340;28;20061;-75
2023/09/14 03:21:52;;;;;;;6.57;2.13;;;12.80;77.40;;;;;;6230096;28;20049;-74
2023/09/14 03:24:53;;;;;;;7.63;2.08;;;12.80;77.70;;;;;;6252092;22;20081;-80
2023/09/14 03:27:55;;;;;;;5.00;1.90;;;12.80;77.20;;;;;;6221451;28;20051;-77
2023/09/14 03:30:57;;;;;;;5.60;2.03;;;12.80;76.60;;;;;;6209634;28;20057;-77
2023/09/14 03:33:58;;;;;;;6.18;1.90;;;12.70;75.30;;;;;;6245280;28;20131;-77
2023/09/14 03:37:00;;;;;;;8.05;3.03;;;12.70;75.30;;;;;;6221777;28;20521;-77
2023/09/14 03:40:04;;;;;;;6.28;1.92;;;12.80;76.90;;;;;;6236107;28;20144;-78
2023/09/14 03:43:06;;;;;;;4.40;1.90;;;12.70;76.50;;;;;;6208192;28;20481;-78
2023/09/14 03:46:08;;;;;;;9.52;2.40;;;12.70;74.60;;;;;;6234662;28;20064;-79
2023/09/14 03:49:10;;;;;;;11.32;2.03;;;12.70;74.20;;;;;;6235503;28;20521;-79
2023/09/14 03:52:12;;;;;;;5.18;1.70;;;12.70;74.20;;;;;;6242884;28;20049;-79
2023/09/14 03:55:14;;;;;;;7.93;3.00;;;12.80;74.20;;;;;;6214620;28;20050;-79
2023/09/14 03:58:16;;;;;;;6.50;1.85;;;12.80;75.30;;;;;;6212847;28;20576;-78
2023/09/14 04:01:17;;;;;;;5.13;2.05;;;12.90;75.60;;;;;;6207026;28;20047;-78
2023/09/14 04:04:19;;;;;;;7.55;1.98;;;13.00;74.90;;;;;;6244193;28;20064;-78
2023/09/14 04:07:21;;;;;;;6.63;1.70;;;13.00;74.40;;;;;;6210739;28;20116;-79
2023/09/14 04:10:23;;;;;;;7.13;1.60;;;13.10;74.60;;;;;;6195356;28;20050;-79
2023/09/14 04:13:25;;;;;;;6.95;2.00;;;13.10;74.80;;;;;;6196747;28;20486;-79
2023/09/14 04:16:28;;;;;;;4.63;1.70;;;13.20;75.40;;;;;;6244876;28;20056;-79
2023/09/14 04:19:30;;;;;;;7.72;2.25;;;13.30;74.70;;;;;;6218709;28;20050;-79
2023/09/14 04:22:32;;;;;;;7.30;1.77;;;13.40;74.80;;;;;;6240443;28;20728;-79
2023/09/14 04:25:33;;;;;;;8.00;1.70;;;13.40;74.80;;;;;;6213559;28;20066;-78
2023/09/14 04:28:35;;;;;;;5.72;1.63;;;13.50;75.90;;;;;;6223731;28;20707;-79
2023/09/14 04:31:37;;;;;;;13.20;2.25;;;13.50;76.10;;;;;;6219780;28;20054;-78
2023/09/14 04:34:38;;;;;;;7.57;2.55;;;13.50;76.20;;;;;;6206554;28;20058;-78
2023/09/14 04:37:40;;;;;;;6.78;1.90;;;13.60;76.40;;;;;;6235010;28;20100;-79
2023/09/14 04:40:42;;;;;;;3.35;1.50;;;13.60;75.30;;;;;;6220385;28;20172;-78
2023/09/14 04:43:43;;;;;;;5.45;1.83;;;13.50;73.70;;;;;;6235134;28;20425;-78
2023/09/14 04:46:45;;;;;;;8.27;2.88;;;13.50;73.50;;;;;;6244187;28;20057;-78
2023/09/14 04:49:47;;;;;;;6.05;1.90;;;13.40;73.50;;;;;;6220331;28;20052;-78
2023/09/14 04:52:48;;;;;;;5.88;1.55;;;13.20;74.60;;;;;;6214717;28;20498;-79
2023/09/14 04:55:50;;;;;;;4.68;1.77;;;13.10;74.50;;;;;;6211231;28;20054;-78
2023/09/14 04:58:52;;;;;;;5.68;1.65;;;13.00;74.40;;;;;;6232496;28;20061;-78
2023/09/14 05:01:53;;;;;;;4.63;1.60;;;13.00;75.10;;;;;;6243639;28;20125;-78
2023/09/14 05:04:55;;;;;;;8.85;1.92;;;12.90;75.30;;;;;;6223039;28;20058;-78
2023/09/14 05:07:57;;;;;;;4.40;1.95;;;12.90;75.90;;;;;;6229142;28;20057;-78
2023/09/14 05:10:58;;;;;;;5.05;1.50;;;12.90;76.90;;;;;;6209726;28;20046;-78
2023/09/14 05:14:00;;;;;;;11.50;1.92;;;12.80;75.70;;;;;;6204866;28;20061;-78
2023/09/14 05:17:02;;;;;;;7.80;2.20;;;12.80;75.00;;;;;;6225539;28;20042;-78
2023/09/14 05:20:07;;;;;;;7.10;2.10;;;12.80;75.70;;;;;;6216842;28;20054;-79
2023/09/14 05:23:08;;;;;;;7.50;2.00;;;12.70;75.10;;;;;;6245716;22;20060;-73
2023/09/14 05:26:10;;;;;;;6.07;1.85;;;12.70;74.20;;;;;;6216697;28;20700;-74
2023/09/14 05:29:12;;;;;;;5.00;1.63;;;12.60;74.10;;;;;;6218262;28;20049;-73
2023/09/14 05:32:14;;;;;;;5.88;2.00;;;12.70;75.00;;;;;;6212430;28;20053;-73
2023/09/14 05:35:16;;;;;;;5.32;1.83;;;13.60;76.30;;;;;;6205425;28;20072;-73
2023/09/14 05:38:18;;;;;;;4.53;1.77;;;12.60;76.90;;;;;;6226302;28;20132;-72
2023/09/14 05:41:19;;;;;;;5.28;1.60;;;12.70;76.10;;;;;;6221295;28;20053;-73
2023/09/14 05:44:21;;;;;;;8.65;2.00;;;12.70;75.90;;;;;;6243501;28;20049;-74
2023/09/14 05:47:22;;;;;;;6.85;1.95;;;12.70;76.40;;;;;;6219004;28;20061;-74
2023/09/14 05:50:24;;;;;;;7.70;2.00;;;12.80;74.70;;;;;;6242762;28;20475;-74
2023/09/14 05:53:25;;;;;;;11.00;2.85;;;12.90;75.80;;;;;;6223476;28;20424;-74
2023/09/14 05:56:27;;;;;;;7.47;1.77;;;13.00;76.20;;;;;;6219857;28;20057;-73
2023/09/14 05:59:29;;;;;;;7.47;2.05;;;13.10;76.30;;;;;;6242515;28;20064;-73
2023/09/14 06:02:33;;;;;;;5.53;1.60;;;13.30;76.60;;;;;;6218893;28;20049;-73
2023/09/14 06:05:35;;;;;;;5.00;1.98;;;13.50;76.50;;;;;;6241065;28;20140;-73
2023/09/14 06:08:37;;;;;;;6.40;1.98;;;13.70;76.00;;;;;;6229265;28;20461;-73
2023/09/14 06:11:40;;;;;;;5.78;2.10;;;13.90;76.40;;;;;;6218460;28;20146;-73
2023/09/14 06:14:42;;;;;;;5.30;2.00;;;14.00;76.20;;;;;;6242348;28;20052;-74
2023/09/14 06:17:43;;;;;;;7.28;2.13;;;14.10;75.50;;;;;;6218895;28;20104;-73
2023/09/14 06:20:45;;;;;;;7.50;2.08;;;14.20;75.70;;;;;;6242491;28;20061;-73
2023/09/14 06:23:46;;;;;;;6.60;2.25;;;14.30;76.30;;;;;;6225158;28;20053;-73
2023/09/14 06:26:48;;;;;;;8.57;2.13;;;14.90;76.00;;;;;;6218110;28;20054;-73
2023/09/14 06:29:50;;;;;;;15.60;2.30;;;14.50;75.70;;;;;;6241727;28;20540;-73
2023/09/14 06:32:52;;;;;;;6.53;2.30;;;14.60;74.40;;;;;;6218220;28;20211;-73
2023/09/14 06:35:53;;;;;;;9.63;2.00;;;14.70;75.70;;;;;;6241618;28;20065;-73
2023/09/14 06:38:55;;;;;;;6.10;2.10;;;14.90;74.10;;;;;;6227105;28;20110;-73
2023/09/14 06:41:57;;;;;;;15.32;2.40;;;15.00;73.70;;;;;;6222688;28;20056;-74
2023/09/14 06:44:59;;;;;;;12.18;2.28;;;15.10;72.90;;;;;;6242198;28;20064;-74
2023/09/14 06:48:00;;;;;;;7.32;2.30;;;15.10;71.80;;;;;;6218314;28;20401;-74
2023/09/14 06:51:02;;;;;;;4.38;1.50;;;15.20;71.90;;;;;;6245152;28;20132;-74
2023/09/14 06:54:04;;;;;;;6.10;2.03;;;15.30;71.90;;;;;;6222053;28;20054;-74
2023/09/14 06:57:06;;;;;;;34.63;3.55;;;15.40;72.10;;;;;;6245867;28;20060;-72
2023/09/14 07:00:14;;;;;;;9.52;2.53;;;15.50;70.90;;;;;;6221788;28;20410;-72
2023/09/14 07:03:16;;;;;;;15.68;2.40;;;15.60;70.40;;;;;;6197198;28;20451;-75
2023/09/14 07:06:17;;;;;;;7.30;2.30;;;15.70;70.10;;;;;;6245066;28;20573;-73
2023/09/14 07:09:19;;;;;;;10.57;2.67;;;15.80;70.00;;;;;;6217842;28;20050;-73
2023/09/14 07:12:21;;;;;;;6.25;2.88;;;15.80;68.30;;;;;;6245060;28;20202;-73
2023/09/14 07:15:23;;;;;;;18.95;3.42;;;15.90;67.70;;;;;;6222048;28;20053;-73
2023/09/14 07:18:25;;;;;;;8.40;3.20;;;16.10;64.60;;;;;;6245042;28;20488;-73
2023/09/14 07:21:27;;;;;;;10.65;3.22;;;16.20;65.10;;;;;;6221666;28;20054;-73
2023/09/14 07:24:29;;;;;;;7.60;3.35;;;16.30;63.50;;;;;;6232242;28;20058;-73
2023/09/14 07:27:30;;;;;;;10.18;3.20;;;16.60;63.40;;;;;;6245553;28;20054;-73
2023/09/14 07:30:32;;;;;;;12.80;3.42;;;17.30;63.80;;;;;;6221296;28;20058;-74
2023/09/14 07:33:33;;;;;;;11.40;3.28;;;18.60;63.10;;;;;;6244016;28;20053;-73
2023/09/14 07:36:35;;;;;;;22.33;3.90;;;19.30;45.10;;;;;;6220436;28;20077;-74
2023/09/14 07:39:37;;;;;;;32.38;3.85;;;19.90;40.40;;;;;;6238202;28;20054;-73
2023/09/14 07:42:38;;;;;;;18.02;3.67;;;20.20;32.20;;;;;;6230521;28;20053;-74
2023/09/14 07:45:40;;;;;;;22.88;4.20;;;20.80;43.40;;;;;;6220237;28;20191;-73
2023/09/14 07:48:42;;;;;;;14.65;4.20;;;21.10;34.30;;;;;;6243832;28;20095;-73
2023/09/14 07:51:44;;;;;;;10.40;3.45;;;21.30;26.70;;;;;;6219362;28;20060;-75
2023/09/14 07:54:46;;;;;;;9.43;3.28;;;21.30;32.50;;;;;;6243964;28;20053;-75
2023/09/14 07:57:48;;;;;;;11.68;3.35;;;22.00;32.00;;;;;;6220891;28;20050;-75
2023/09/14 08:00:50;;;;;;;8.02;3.15;;;22.50;28.20;;;;;;6243924;28;20467;-74
2023/09/14 08:03:51;;;;;;;7.53;2.88;;;23.00;2.30;;;;;;6220893;28;20157;-75
2023/09/14 08:06:54;;;;;;;7.80;2.70;;;22.90;1.90;;;;;;6244251;28;20053;-74
2023/09/14 08:09:55;;;;;;;8.55;3.63;;;23.70;16.20;;;;;;6220402;28;20541;-75
2023/09/14 08:12:58;;;;;;;6.55;2.50;;;24.40;1.00;;;;;;6244477;28;20057;-75
2023/09/14 08:16:00;;;;;;;10.75;2.60;;;25.20;1.00;;;;;;6220308;28;20057;-74
2023/09/14 08:19:02;;;;;;;6.50;2.55;;;25.40;1.00;;;;;;6243720;28;20715;-74
2023/09/14 08:22:04;;;;;;;7.47;2.75;;;25.20;1.00;;;;;;6220806;28;20057;-74
2023/09/14 08:25:07;;;;;;;7.22;2.60;;;24.90;1.00;;;;;;6226665;28;20458;-74
2023/09/14 08:28:10;;;;;;;12.32;2.92;;;24.20;1.00;;;;;;6244063;28;20516;-74
2023/09/14 08:31:12;;;;;;;7.70;2.50;;;23.80;1.00;;;;;;6220111;28;20128;-75
2023/09/14 08:34:13;;;;;;;5.43;2.30;;;24.10;1.00;;;;;;6243662;28;20140;-74
2023/09/14 08:37:15;;;;;;;7.78;2.60;;;24.40;1.00;;;;;;6221294;28;20056;-75
2023/09/14 08:40:18;;;;;;;7.43;2.80;;;24.80;1.00;;;;;;6243773;28;20064;-75
2023/09/14 08:43:20;;;;;;;7.00;2.67;;;25.20;1.00;;;;;;6210961;28;20053;-75
2023/09/14 08:46:22;;;;;;;10.10;3.17;;;25.50;1.00;;;;;;6243950;28;20547;-76
2023/09/14 08:49:24;;;;;;;9.30;2.83;;;25.30;1.00;;;;;;6220144;28;20164;-77
2023/09/14 08:52:25;;;;;;;6.35;3.08;;;25.30;1.00;;;;;;6235263;28;20076;-76
2023/09/14 08:55:27;;;;;;;8.10;2.92;;;25.30;1.00;;;;;;6219473;28;20478;-75
2023/09/14 08:58:29;;;;;;;10.45;2.40;;;25.00;1.00;;;;;;6194901;28;20057;-75
2023/09/14 09:01:30;;;;;;;5.30;2.60;;;24.90;1.00;;;;;;6242684;28;20080;-76
2023/09/14 09:04:32;;;;;;;8.05;2.92;;;25.40;1.00;;;;;;6217105;28;20425;-75
2023/09/14 09:07:34;;;;;;;6.47;2.55;;;25.20;1.00;;;;;;6230434;28;20630;-74
2023/09/14 09:10:36;;;;;;;6.20;2.20;;;24.80;1.00;;;;;;6241887;28;20053;-75
2023/09/14 09:13:38;;;;;;;7.22;2.08;;;24.00;1.00;;;;;;6219056;28;20064;-74
2023/09/14 09:16:40;;;;;;;5.20;2.22;;;23.40;1.00;;;;;;6235874;28;20061;-75
2023/09/14 09:19:41;;;;;;;7.18;2.05;;;22.70;1.00;;;;;;6242768;28;20061;-74
2023/09/14 09:22:46;;;;;;;6.00;1.83;;;22.30;1.00;;;;;;6224599;28;20046;-75
2023/09/14 09:25:48;;;;;;;4.13;1.85;;;22.20;1.00;;;;;;6241922;28;20409;-73
2023/09/14 09:28:49;;;;;;;9.23;2.55;;;21.90;1.00;;;;;;6219529;28;20061;-74
2023/09/14 09:31:51;;;;;;;7.28;1.90;;;21.70;1.00;;;;;;6242798;28;20053;-74
2023/09/14 09:34:53;;;;;;;6.22;2.00;;;21.90;1.00;;;;;;6219439;28;20227;-74
2023/09/14 09:37:55;;;;;;;5.68;2.20;;;21.90;1.00;;;;;;6229595;28;20050;-75
2023/09/14 09:40:58;;;;;;;4.72;1.70;;;23.30;1.00;;;;;;6218726;28;20060;-75
2023/09/14 09:44:00;;;;;;;6.70;1.90;;;24.30;1.00;;;;;;6243237;28;20053;-74
2023/09/14 09:47:02;;;;;;;6.03;1.80;;;25.00;1.00;;;;;;6218796;28;20061;-74
2023/09/14 09:50:04;;;;;;;4.95;1.55;;;25.60;1.00;;;;;;6242321;28;20052;-74
2023/09/14 09:53:05;;;;;;;9.23;2.35;;;26.50;1.00;;;;;;6224961;28;20436;-74
2023/09/14 09:56:07;;;;;;;6.45;1.65;;;26.80;1.00;;;;;;6218954;28;20707;-74
2023/09/14 09:59:13;;;;;;;4.25;1.30;;;27.20;1.00;;;;;;6242527;28;20053;-74
2023/09/14 10:02:14;;;;;;;4.30;1.30;;;27.30;1.00;;;;;;6218657;28;20563;-75
2023/09/14 10:05:16;;;;;;;8.23;1.67;;;28.00;1.00;;;;;;6222599;28;20054;-75
2023/09/14 10:08:18;;;;;;;4.18;1.50;;;28.00;1.00;;;;;;6224959;28;20046;-75
2023/09/14 10:11:19;;;;;;;4.03;1.30;;;26.90;1.00;;;;;;6241028;28;20056;-75
2023/09/14 10:14:21;;;;;;;4.32;1.45;;;26.80;1.00;;;;;;6219208;28;20387;-76
2023/09/14 10:17:23;;;;;;;3.85;1.30;;;26.80;1.00;;;;;;6242675;28;20053;-77
2023/09/14 10:20:25;;;;;;;3.67;1.30;;;26.40;1.00;;;;;;6218466;28;20556;-76
2023/09/14 10:23:26;;;;;;;21.85;2.17;;;26.60;1.00;;;;;;6232336;28;20489;-76
2023/09/14 10:26:28;;;;;;;4.57;1.70;;;27.10;1.00;;;;;;6247291;28;20451;-74
2023/09/14 10:29:30;;;;;;;4.32;1.50;;;28.30;1.00;;;;;;6223193;28;20229;-74
2023/09/14 10:32:32;;;;;;;4.15;1.42;;;28.70;1.00;;;;;;6246454;28;20076;-74
2023/09/14 10:35:33;;;;;;;4.43;1.85;;;28.70;1.00;;;;;;6222889;28;20156;-75
2023/09/14 10:38:38;;;;;;;3.78;1.65;;;29.10;1.00;;;;;;6229705;28;20084;-74
2023/09/14 10:41:40;;;;;;;4.97;1.30;;;29.20;1.00;;;;;;6246990;28;20056;-75
2023/09/14 10:44:41;;;;;;;3.65;1.38;;;29.80;1.00;;;;;;6222770;28;20046;-75
2023/09/14 10:47:43;;;;;;;92.70;6.53;;;29.60;1.00;;;;;;6246076;28;20053;-75
2023/09/14 10:50:45;;;;;;;4.78;1.48;;;29.90;1.00;;;;;;6222456;28;20077;-74
2023/09/14 10:53:47;;;;;;;3.83;1.50;;;29.80;1.00;;;;;;6229894;28;20429;-75
2023/09/14 10:56:48;;;;;;;3.55;1.60;;;29.60;1.00;;;;;;6246393;28;20053;-74
2023/09/14 10:59:50;;;;;;;7.07;1.33;;;30.00;1.00;;;;;;6222387;28;20512;-75
2023/09/14 11:02:52;;;;;;;5.43;1.52;;;30.40;1.00;;;;;;6245888;28;20050;-73
2023/09/14 11:06:03;;;;;;;2.92;1.50;;;30.20;1.00;;;;;;6219489;28;20057;-73
2023/09/14 11:09:05;;;;;;;3.38;1.35;;;29.90;1.00;;;;;;6243386;28;20053;-72
2023/09/14 11:12:08;;;;;;;13.63;1.83;;;29.60;1.00;;;;;;6221704;28;20403;-75
2023/09/14 11:15:12;;;;;;;2.72;1.30;;;29.40;1.00;;;;;;6245630;28;20107;-73
2023/09/14 11:18:15;;;;;;;10.50;1.92;;;29.90;1.00;;;;;;6221569;28;20209;-75
2023/09/14 11:21:17;;;;;;;2.28;1.10;;;30.50;1.00;;;;;;6245304;28;20057;-74
2023/09/14 11:24:19;;;;;;;2.50;1.20;;;30.20;1.00;;;;;;6225312;28;20424;-75
2023/09/14 11:27:22;;;;;;;4.93;1.40;;;30.10;1.00;;;;;;6222329;28;20057;-75
2023/09/14 11:30:27;;;;;;;3.58;1.38;;;29.90;1.00;;;;;;6244553;28;20057;-75
2023/09/14 11:33:29;;;;;;;3.50;1.75;;;30.40;1.00;;;;;;6221127;28;20065;-75
2023/09/14 11:36:32;;;;;;;4.35;1.50;;;30.70;1.00;;;;;;6245079;28;20060;-75
2023/09/14 11:39:35;;;;;;;5.13;1.70;;;30.00;1.00;;;;;;6215742;28;20430;-75
2023/09/14 11:42:39;;;;;;;22.77;2.55;;;30.10;1.00;;;;;;6245253;28;20184;-75
2023/09/14 11:45:44;;;;;;;3.63;1.50;;;30.00;1.00;;;;;;6220946;28;20140;-75
2023/09/14 11:48:51;;;;;;;2.90;1.40;;;30.50;1.00;;;;;;6196636;28;20061;-75
2023/09/14 11:51:55;;;;;;;3.00;1.23;;;31.00;1.00;;;;;;6245103;28;20049;-75
2023/09/14 11:54:57;;;;;;;4.93;1.60;;;31.10;1.00;;;;;;6219116;28;20065;-75
2023/09/14 11:57:58;;;;;;;3.80;1.50;;;31.40;1.00;;;;;;6245031;28;20053;-75
2023/09/14 12:01:00;;;;;;;4.32;1.60;;;31.40;1.00;;;;;;6220089;28;20050;-75
2023/09/14 12:04:02;;;;;;;3.58;1.80;;;31.30;1.00;;;;;;6242251;28;20045;-76
2023/09/14 12:07:04;;;;;;;4.53;1.40;;;30.10;1.00;;;;;;6220671;28;20331;-75
2023/09/14 12:10:05;;;;;;;4.57;1.60;;;30.40;1.00;;;;;;6243374;28;20049;-75
2023/09/14 12:13:07;;;;;;;6.40;1.73;;;30.60;1.00;;;;;;6196005;28;20511;-75
2023/09/14 12:16:09;;;;;;;3.30;1.45;;;31.10;1.00;;;;;;6243864;28;20053;-75
2023/09/14 12:19:11;;;;;;;3.55;1.48;;;31.20;1.00;;;;;;6220510;28;20506;-75
2023/09/14 12:22:14;;;;;;;3.55;1.70;;;31.40;1.00;;;;;;6242366;28;20051;-77
2023/09/14 12:25:16;;;;;;;4.38;1.70;;;30.30;1.00;;;;;;6235051;28;20511;-77
2023/09/14 12:28:18;;;;;;;3.10;1.35;;;30.30;1.00;;;;;;6220523;28;20065;-76
2023/09/14 12:31:20;;;;;;;2.70;1.23;;;29.20;1.00;;;;;;6244185;28;20188;-77
2023/09/14 12:34:21;;;;;;;4.90;1.60;;;29.80;1.00;;;;;;6220595;28;20489;-75
2023/09/14 12:37:23;;;;;;;3.25;1.40;;;30.00;1.00;;;;;;6233349;28;20489;-75
2023/09/14 12:40:25;;;;;;;4.07;1.45;;;29.50;1.00;;;;;;6219710;28;20410;-75
2023/09/14 12:43:26;;;;;;;4.10;1.50;;;29.10;1.00;;;;;;6195858;28;20046;-74
2023/09/14 12:46:29;;;;;;;5.13;1.67;;;29.50;1.00;;;;;;6242511;28;20508;-76
2023/09/14 12:49:30;;;;;;;3.00;1.30;;;29.90;1.00;;;;;;6219758;28;20394;-76
2023/09/14 12:52:32;;;;;;;3.58;1.50;;;30.30;1.00;;;;;;6238600;28;20431;-75
2023/09/14 12:55:33;;;;;;;2.92;1.42;;;30.80;1.00;;;;;;6218080;28;20446;-76
2023/09/14 12:58:35;;;;;;;3.38;1.23;;;30.50;1.00;;;;;;6243896;28;20049;-76
2023/09/14 13:01:40;;;;;;;3.65;1.30;;;30.20;1.00;;;;;;6219371;28;20061;-76
2023/09/14 13:04:42;;;;;;;2.95;1.20;;;29.90;1.00;;;;;;6219312;28;20045;-75
2023/09/14 13:07:44;;;;;;;2.95;1.10;;;29.30;1.00;;;;;;6221021;28;20088;-75
2023/09/14 13:10:46;;;;;;;10.77;3.25;;;29.60;1.00;;;;;;6243331;28;20058;-75
2023/09/14 13:13:48;;;;;;;6.38;1.60;;;29.00;1.00;;;;;;6219323;28;20068;-75
2023/09/14 13:16:50;;;;;;;20.38;2.20;;;29.50;1.00;;;;;;6242851;28;20440;-75
2023/09/14 13:19:53;;;;;;;4.93;1.30;;;29.90;1.00;;;;;;6219719;28;20069;-75
2023/09/14 13:22:54;;;;;;;2.72;1.30;;;29.90;1.00;;;;;;6228284;28;20536;-75
2023/09/14 13:25:56;;;;;;;4.22;1.40;;;29.40;1.00;;;;;;6218597;28;20058;-74
2023/09/14 13:28:57;;;;;;;5.05;1.10;;;29.90;1.00;;;;;;6242427;28;20053;-75
2023/09/14 13:31:59;;;;;;;3.65;1.25;;;29.80;1.00;;;;;;6218864;28;20072;-75
2023/09/14 13:35:01;;;;;;;3.63;1.20;;;29.50;1.00;;;;;;6242463;28;20413;-74
2023/09/14 13:38:02;;;;;;;3.13;1.30;;;29.50;1.00;;;;;;6220713;28;20250;-75
2023/09/14 13:41:04;;;;;;;5.85;1.70;;;29.90;1.00;;;;;;6218947;28;20061;-75
2023/09/14 13:44:06;;;;;;;4.22;1.40;;;30.10;1.00;;;;;;6242183;28;20049;-75
2023/09/14 13:47:08;;;;;;;4.82;1.48;;;29.60;1.00;;;;;;6218479;28;20470;-76
2023/09/14 13:50:10;;;;;;;5.18;1.70;;;29.60;1.00;;;;;;6242902;28;20080;-75
2023/09/14 13:53:12;;;;;;;4.55;1.50;;;29.90;1.00;;;;;;6223072;28;20052;-75
2023/09/14 13:56:14;;;;;;;5.38;1.30;;;29.70;1.00;;;;;;6218870;28;20526;-75
2023/09/14 13:59:16;;;;;;;3.05;1.20;;;29.90;1.00;;;;;;6245340;28;20064;-75
2023/09/14 14:02:18;;;;;;;6.40;1.50;;;29.50;1.00;;;;;;6221852;28;20060;-75
2023/09/14 14:05:20;;;;;;;5.50;1.15;;;29.40;1.00;;;;;;6227393;28;20060;-75
2023/09/14 14:08:23;;;;;;;6.53;1.40;;;29.20;1.00;;;;;;6232968;28;20054;-76
2023/09/14 14:11:25;;;;;;;5.25;1.40;;;29.20;1.00;;;;;;6246586;28;20144;-76
2023/09/14 14:14:27;;;;;;;9.02;1.70;;;29.50;1.00;;;;;;6221932;28;20137;-76
2023/09/14 14:17:38;;;;;;;80.10;3.95;;;29.20;1.00;;;;;;6197211;28;20058;-77
2023/09/14 14:20:40;;;;;;;26.60;3.67;;;29.20;1.00;;;;;;6245515;28;20163;-76
2023/09/14 14:23:43;;;;;;;5.13;1.60;;;28.60;1.00;;;;;;6226831;28;20050;-76
2023/09/14 14:26:45;;;;;;;4.25;1.20;;;28.60;1.00;;;;;;6222001;28;20057;-76
2023/09/14 14:29:47;;;;;;;4.97;1.50;;;28.50;1.00;;;;;;6245828;28;20497;-77
2023/09/14 14:32:48;;;;;;;3.97;1.27;;;28.70;1.00;;;;;;6223179;28;20496;-77
2023/09/14 14:35:50;;;;;;;4.07;1.42;;;28.30;1.00;;;;;;6246557;28;20413;-76
2023/09/14 14:38:52;;;;;;;5.82;1.70;;;29.10;1.00;;;;;;6232348;28;20398;-76
2023/09/14 14:41:54;;;;;;;10.48;1.25;;;;;;;;;;6222561;28;20579;-75
2023/09/14 14:44:56;;;;;;;4.25;1.27;;;27.90;1.00;;;;;;6246310;28;20053;-75
2023/09/14 14:47:57;;;;;;;2.83;1.30;;;27.50;1.00;;;;;;6222967;28;20481;-75
2023/09/14 14:50:59;;;;;;;3.03;1.17;;;27.50;1.00;;;;;;6246183;28;20052;-75
2023/09/14 14:54:03;;;;;;;5.65;1.40;;;27.60;1.00;;;;;;6218913;28;20080;-75
2023/09/14 14:57:05;;;;;;;14.73;1.63;;;27.50;1.00;;;;;;6244807;28;20049;-76
2023/09/14 15:00:07;;;;;;;3.90;1.27;;;27.10;1.00;;;;;;6222427;28;20053;-75
2023/09/14 15:03:08;;;;;;;2.85;1.30;;;27.30;1.00;;;;;;6243759;28;20179;-75
2023/09/14 15:06:14;;;;;;;4.10;1.20;;;27.60;1.00;;;;;;6245164;28;20354;-75
2023/09/14 15:09:16;;;;;;;3.50;1.20;;;26.90;1.00;;;;;;6220708;28;20054;-75
2023/09/14 15:12:17;;;;;;;4.68;1.30;;;26.90;1.00;;;;;;6245627;28;20065;-75
2023/09/14 15:15:19;;;;;;;3.47;1.30;;;27.10;1.00;;;;;;6222597;28;20120;-76
2023/09/14 15:18:21;;;;;;;3.45;1.17;;;27.10;1.00;;;;;;6245499;28;20539;-75
2023/09/14 15:21:23;;;;;;;2.83;1.05;;;;;;;;;;6221916;28;20057;-75
2023/09/14 15:24:25;;;;;;;3.53;1.45;;;26.80;1.00;;;;;;6233164;28;20060;-74
2023/09/14 15:27:27;;;;;;;3.58;1.13;;;26.60;1.00;;;;;;6245504;28;20050;-75
2023/09/14 15:30:29;;;;;;;2.95;1.23;;;26.20;1.00;;;;;;6221907;28;20140;-75
2023/09/14 15:33:31;;;;;;;11.55;1.55;;;25.80;1.00;;;;;;6245672;28;20188;-75
2023/09/14 15:36:33;;;;;;;3.40;1.20;;;25.60;1.00;;;;;;6222021;28;20054;-75
2023/09/14 15:39:38;;;;;;;3.90;1.20;;;25.40;1.00;;;;;;6239670;28;20073;-75
2023/09/14 15:42:40;;;;;;;8.77;2.03;;;25.20;1.00;;;;;;6221215;28;20056;-74
2023/09/14 15:45:41;;;;;;;14.38;1.73;;;25.00;1.00;;;;;;6245386;28;20053;-74
2023/09/14 15:48:43;;;;;;;18.05;2.10;;;25.10;1.00;;;;;;6220489;28;20054;-76
2023/09/14 15:51:45;;;;;;;4.35;1.30;;;25.10;1.00;;;;;;6242740;28;20152;-74